VTBU

U-Tapao International Airport

Rayong, Thailand
TAF VTBU 161700Z 1618/1718 25004KT 6000 FEW020 SCT100 BECMG 1621/1623 23006KT 8000 TEMPO 1702/1707 VRB10KT 5000 -RA FEW018CB SCT035 BKN100
Issued Valid From Valid To
Jul-16 @ 17:00 UTC
(3 hours ago)
Jul-16 @ 18:00 UTC
(2 hours ago)
Jul-17 @ 18:00 UTC
(in 22 hours)
Jul-16 @ 18:00 to Jul-16 @ 21:00
TAF VTBU 161700Z 1618/1718 25004KT 6000 FEW020 SCT100
Wind Visibility Clouds
250° at 4 knots 6,003 meters
  • Few at 2,000' AGL
  • Scattered at 10,000' AGL
Becoming Jul-16 @ 21:00 to Jul-17 @ 18:00
BECMG 1621/1623 23006KT 8000
Wind Visibility Clouds
230° at 6 knots 7,998 meters
  • Few at 2,000' AGL
  • Scattered at 10,000' AGL
Temporary Jul-17 @ 02:00 to Jul-17 @ 07:00
TEMPO 1702/1707 VRB10KT 5000 -RA FEW018CB SCT035 BKN100
Wind Visibility Clouds Conditions
Variable at 10 knots 5,005 meters
  • Few at 1,800' AGL
  • Scattered at 3,500' AGL
  • Broken at 10,000' AGL
  • Light Rain
TAF VTBU 161700Z 1618/1718 25004KT 6000 FEW020 SCT100 BECMG 1621/1623 23006KT 8000 TEMPO 1702/1707 VRB10KT 5000 -RA FEW018CB SCT035 BKN100
Issued Jul-16 @ 17:00 UTC
(3 hours ago)
Valid From Jul-16 @ 18:00 UTC
(2 hours ago)
Valid To Jul-17 @ 18:00 UTC
(in 22 hours)
Jul-16 @ 18:00 - Jul-16 @ 21:00
Wind Visibility
250° at 4 knots 6,003 meters
Clouds
  • Few at 2,000' AGL
  • Scattered at 10,000' AGL
Becoming Jul-16 @ 21:00 - Jul-17 @ 18:00
Wind Visibility
230° at 6 knots 7,998 meters
Clouds
  • Few at 2,000' AGL
  • Scattered at 10,000' AGL
Temporary Jul-17 @ 02:00 - Jul-17 @ 07:00
Wind Visibility
Variable at 10 knots 5,005 meters
Clouds
  • Few at 1,800' AGL
  • Scattered at 3,500' AGL
  • Broken at 10,000' AGL
Conditions
  • Light Rain